Time;durP1;ratioP1;P1;durP2;ratioP2;P2;SDS_P1;SDS_P2;PMS_P1;PMS_P2;Temp;Humidity;BMP_temperature;BMP_pressure;BME280_temperature;BME280_humidity;BME280_pressure;Samples;Min_cycle;Max_cycle;Signal;HPM_P1;HPM_P2
2022/05/08 00:00:46;;;;;;;5.47;4.17;;;;;;;12.86;62.04;95356.59;5071824;28;20453;-78
2022/05/08 00:03:13;;;;;;;6.60;3.33;;;;;;;12.90;62.42;95338.72;5072338;28;20456;-78
2022/05/08 00:05:41;;;;;;;8.40;4.30;;;;;;;13.04;61.83;95348.91;5071854;28;20790;-79
2022/05/08 00:08:08;;;;;;;5.60;3.67;;;;;;;13.09;60.41;95340.59;5072133;28;20931;-78
2022/05/08 00:10:35;;;;;;;3.80;3.50;;;;;;;13.14;60.38;95343.66;5036453;28;20476;-79
2022/05/08 00:13:02;;;;;;;6.77;4.47;;;;;;;13.19;60.49;95342.31;5071915;28;20437;-78
2022/05/08 00:15:29;;;;;;;3.67;3.37;;;;;;;13.17;59.45;95338.97;5071702;28;20811;-78
2022/05/08 00:17:56;;;;;;;4.30;3.60;;;;;;;13.19;59.73;95336.19;5071553;28;20440;-78
2022/05/08 00:20:23;;;;;;;5.20;3.93;;;;;;;13.18;58.69;95338.00;5071902;28;20445;-78
2022/05/08 00:22:51;;;;;;;5.70;4.30;;;;;;;13.11;58.95;95344.75;5071697;28;20963;-78
2022/05/08 00:25:18;;;;;;;7.63;3.80;;;;;;;13.12;58.95;95343.78;5071746;28;20440;-79
2022/05/08 00:27:45;;;;;;;5.47;3.93;;;;;;;13.00;58.67;95339.56;5071638;28;20452;-78
2022/05/08 00:30:13;;;;;;;5.93;3.60;;;;;;;12.95;58.77;95342.59;5071789;28;20516;-78
2022/05/08 00:32:40;;;;;;;6.00;4.30;;;;;;;12.67;60.88;95338.06;5072013;28;20440;-78
2022/05/08 00:35:09;;;;;;;4.10;3.70;;;;;;;12.66;61.24;95344.28;5071740;28;20502;-78
2022/05/08 00:37:36;;;;;;;5.33;3.50;;;;;;;12.61;60.59;95347.31;4988925;28;20882;-78
2022/05/08 00:40:06;;;;;;;10.00;4.93;;;;;;;12.49;60.47;95342.28;5071551;28;20448;-78
2022/05/08 00:42:32;;;;;;;7.30;4.30;;;;;;;12.48;60.89;95345.88;5071332;28;20448;-78
2022/05/08 00:44:59;;;;;;;5.33;4.63;;;;;;;12.46;60.81;95347.81;5071470;28;20470;-79
2022/05/08 00:47:26;;;;;;;8.53;4.70;;;;;;;12.47;60.61;95349.47;5071532;28;20788;-77
2022/05/08 00:49:54;;;;;;;11.50;4.77;;;;;;;12.49;61.22;95339.66;5071339;28;20444;-78
2022/05/08 00:52:21;;;;;;;4.40;4.00;;;;;;;12.56;60.57;95343.41;5022603;28;20802;-78
2022/05/08 00:54:48;;;;;;;10.50;4.50;;;;;;;12.51;60.17;95341.19;5039820;28;20425;-77
2022/05/08 00:57:16;;;;;;;5.07;3.67;;;;;;;12.44;61.17;95337.41;5074904;28;20445;-78
2022/05/08 00:59:43;;;;;;;6.50;4.33;;;;;;;12.30;60.47;95343.00;5074876;28;20790;-79
2022/05/08 01:02:10;;;;;;;4.30;4.00;;;;;;;12.28;61.28;95335.25;5074954;28;20451;-79
2022/05/08 01:04:37;;;;;;;5.23;3.83;;;;;;;12.33;61.07;95343.56;5074913;28;20444;-78
2022/05/08 01:07:05;;;;;;;4.60;4.10;;;;;;;12.27;60.87;95338.84;5074549;28;20441;-77
2022/05/08 01:09:32;;;;;;;9.10;4.20;;;;;;;12.17;61.25;95343.22;5039875;28;20441;-79
2022/05/08 01:11:59;;;;;;;3.90;3.60;;;;;;;12.20;62.29;95342.94;5074743;28;20488;-79
2022/05/08 01:14:27;;;;;;;13.00;4.47;;;;;;;12.14;61.46;95337.34;5074558;28;20452;-78
2022/05/08 01:16:54;;;;;;;6.30;4.30;;;;;;;12.16;61.64;95338.91;5074879;28;20452;-78
2022/05/08 01:19:21;;;;;;;14.20;4.40;;;;;;;12.20;61.17;95334.22;5074855;28;20473;-79
2022/05/08 01:21:49;;;;;;;7.27;4.10;;;;;;;12.20;61.50;95328.97;5074477;28;20488;-77
2022/05/08 01:24:22;;;;;;;6.90;4.00;;;;;;;12.16;61.97;95335.44;5074564;28;20425;-78
2022/05/08 01:26:48;;;;;;;3.70;3.40;;;;;;;12.01;61.39;95329.66;5074534;28;20465;-78
2022/05/08 01:29:16;;;;;;;4.83;4.40;;;;;;;11.98;60.73;95327.28;5074780;28;20525;-79
2022/05/08 01:31:43;;;;;;;4.27;3.87;;;;;;;11.87;61.40;95329.97;5074387;28;20481;-78
2022/05/08 01:34:10;;;;;;;6.40;4.03;;;;;;;11.88;60.16;95326.38;5074284;28;20967;-78
2022/05/08 01:36:37;;;;;;;5.70;4.00;;;;;;;11.88;60.53;95329.03;5074575;28;20440;-77
2022/05/08 01:39:06;;;;;;;5.60;4.73;;;;;;;11.70;60.32;95323.44;5074180;28;20793;-79
2022/05/08 01:41:33;;;;;;;6.13;4.07;;;;;;;11.67;61.11;95323.69;5074363;28;20571;-78
2022/05/08 01:44:00;;;;;;;6.10;3.97;;;;;;;11.46;61.01;95316.59;5074398;28;20540;-78
2022/05/08 01:46:26;;;;;;;16.57;4.43;;;;;;;11.40;60.64;95321.53;5074189;28;20459;-78
2022/05/08 01:48:52;;;;;;;5.37;4.20;;;;;;;11.51;61.34;95329.34;5074163;28;20440;-78
2022/05/08 01:51:22;;;;;;;10.03;4.30;;;;;;;11.49;61.43;95318.97;5074442;28;20917;-78
2022/05/08 01:53:49;;;;;;;6.93;4.57;;;;;;;11.46;60.90;95319.22;5022408;28;20992;-78
2022/05/08 01:56:19;;;;;;;16.70;5.07;;;;;;;11.49;60.36;95326.84;5074179;28;20439;-78
2022/05/08 01:58:48;;;;;;;7.10;4.20;;;;;;;11.46;60.35;95323.66;5073944;28;20437;-78
2022/05/08 02:01:16;;;;;;;6.47;4.20;;;;;;;11.37;60.73;95322.63;5073905;28;20959;-78
2022/05/08 02:03:44;;;;;;;4.70;3.70;;;;;;;11.26;60.22;95321.78;5073165;28;20445;-77
2022/05/08 02:06:11;;;;;;;6.93;4.30;;;;;;;11.01;61.04;95310.66;5073924;28;20456;-78
2022/05/08 02:08:38;;;;;;;6.13;4.17;;;;;;;10.97;61.13;95324.94;5073647;28;20445;-78
2022/05/08 02:11:06;;;;;;;7.23;4.90;;;;;;;11.02;60.54;95319.38;5021615;28;20842;-79
2022/05/08 02:13:34;;;;;;;6.40;4.30;;;;;;;10.63;60.94;95332.03;5073488;28;20445;-78
2022/05/08 02:16:01;;;;;;;4.83;3.57;;;;;;;10.65;60.61;95318.78;5073449;28;20448;-78
2022/05/08 02:18:28;;;;;;;10.53;4.20;;;;;;;10.72;60.25;95328.72;5073520;28;20492;-78
2022/05/08 02:20:55;;;;;;;8.57;4.00;;;;;;;10.65;59.32;95330.13;5073509;28;20433;-78
2022/05/08 02:23:22;;;;;;;7.63;4.80;;;;;;;10.65;58.58;95334.53;5073847;28;20447;-79
2022/05/08 02:25:49;;;;;;;8.50;4.47;;;;;;;10.68;60.28;95329.03;5073911;28;21006;-78
2022/05/08 02:28:16;;;;;;;5.23;4.60;;;;;;;10.66;60.38;95315.19;5073255;28;20536;-78
2022/05/08 02:30:44;;;;;;;5.70;4.27;;;;;;;10.70;60.34;95319.28;5072974;28;20480;-78
2022/05/08 02:33:11;;;;;;;4.40;4.00;;;;;;;10.71;60.36;95318.31;5073140;28;20444;-78
2022/05/08 02:35:38;;;;;;;9.17;4.43;;;;;;;10.80;60.06;95318.44;5073103;28;20445;-78
2022/05/08 02:38:04;;;;;;;5.77;4.60;;;;;;;10.90;60.27;95326.41;5021515;28;20455;-78
2022/05/08 02:40:31;;;;;;;8.77;4.77;;;;;;;10.96;61.05;95325.06;5073065;28;20527;-78
2022/05/08 02:42:58;;;;;;;9.13;4.67;;;;;;;11.01;60.67;95321.16;5072642;28;20453;-78
2022/05/08 02:45:25;;;;;;;6.70;4.70;;;;;;;11.06;60.54;95311.13;5073158;28;20440;-78
2022/05/08 02:47:54;;;;;;;6.87;4.30;;;;;;;11.11;61.08;95316.81;5021172;28;20481;-78
2022/05/08 02:50:21;;;;;;;5.60;4.13;;;;;;;11.13;60.38;95308.81;5021158;28;20447;-78
2022/05/08 02:52:48;;;;;;;10.23;4.97;;;;;;;11.15;60.74;95313.00;5073167;28;20537;-78
2022/05/08 03:00:45;;;;;;;6.60;4.27;;;;;;;11.00;60.38;95318.66;5072519;28;20511;-79
2022/05/08 03:03:14;;;;;;;7.20;5.03;;;;;;;11.00;60.33;95316.84;5072553;28;20468;-77
2022/05/08 03:05:43;;;;;;;10.27;4.60;;;;;;;11.01;59.87;95321.16;5071368;28;20471;-79
2022/05/08 03:08:11;;;;;;;5.43;4.07;;;;;;;10.99;59.55;95325.69;5072717;28;20444;-78
2022/05/08 03:13:19;;;;;;;11.83;5.47;;;;;;;11.03;59.64;95323.66;5071572;28;20437;-78
2022/05/08 03:15:47;;;;;;;7.60;5.13;;;;;;;10.99;60.02;95323.06;5072223;28;20459;-78
2022/05/08 03:18:15;;;;;;;4.93;4.60;;;;;;;10.97;60.78;95330.22;5071908;28;20529;-78
2022/05/08 03:20:42;;;;;;;4.83;4.43;;;;;;;10.95;62.10;95323.41;5072021;28;20452;-78
2022/05/08 03:23:09;;;;;;;8.33;6.40;;;;;;;10.94;62.21;95332.25;5072030;28;20475;-78
2022/05/08 03:25:36;;;;;;;9.13;5.53;;;;;;;10.94;62.40;95335.69;5072440;28;20441;-78
2022/05/08 03:28:03;;;;;;;11.30;4.53;;;;;;;10.89;61.45;95332.63;5072320;28;20449;-78
2022/05/08 03:30:30;;;;;;;5.93;4.70;;;;;;;10.88;61.26;95336.19;5072129;28;20452;-78
2022/05/08 03:32:58;;;;;;;5.50;5.00;;;;;;;10.88;62.36;95333.56;5072102;28;20871;-78
2022/05/08 03:35:27;;;;;;;15.77;5.17;;;;;;;10.60;62.15;95334.91;5072294;28;20441;-78
2022/05/08 03:37:54;;;;;;;12.00;5.30;;;;;;;10.60;63.16;95332.28;5072476;28;20440;-78
2022/05/08 03:40:21;;;;;;;10.33;5.57;;;;;;;10.28;63.69;95337.38;5072152;28;20441;-78
2022/05/08 03:42:48;;;;;;;5.63;4.70;;;;;;;10.36;63.20;95336.78;5071919;28;20449;-78
2022/05/08 03:45:15;;;;;;;4.93;4.47;;;;;;;10.52;62.82;95334.66;5072034;28;20429;-78
2022/05/08 03:47:42;;;;;;;7.50;5.00;;;;;;;10.95;63.02;95336.53;5071823;28;20444;-78
2022/05/08 03:50:10;;;;;;;7.50;5.50;;;;;;;11.54;60.65;95331.72;5072378;28;20801;-78
2022/05/08 03:52:38;;;;;;;4.37;4.00;;;;;;;11.97;57.87;95333.50;5071836;28;20479;-78
2022/05/08 03:55:06;;;;;;;7.00;4.23;;;;;;;12.25;55.42;95335.50;5072160;28;20425;-77
2022/05/08 03:57:33;;;;;;;9.80;4.60;;;;;;;12.34;54.27;95323.34;5072396;28;20452;-78
2022/05/08 04:00:00;;;;;;;11.23;4.47;;;;;;;12.46;54.24;95327.59;5072161;28;20439;-78
2022/05/08 04:02:27;;;;;;;5.10;4.20;;;;;;;12.61;53.45;95328.91;5072075;28;20453;-78
2022/05/08 04:04:54;;;;;;;5.47;3.90;;;;;;;13.15;52.09;95330.34;5072089;28;20459;-77
2022/05/08 04:07:21;;;;;;;4.07;3.67;;;;;;;13.79;50.36;95331.69;5071849;28;21185;-79
2022/05/08 04:09:50;;;;;;;6.63;4.00;;;;;;;14.46;48.46;95333.47;5072217;28;20445;-78
2022/05/08 04:12:16;;;;;;;5.93;3.87;;;;;;;15.03;46.65;95328.94;5070969;28;20850;-78
2022/05/08 04:14:43;;;;;;;7.47;3.63;;;;;;;15.61;45.55;95328.63;5071381;28;20811;-79
2022/05/08 04:17:09;;;;;;;8.70;3.53;;;;;;;16.23;44.20;95333.03;5071957;28;20448;-78
2022/05/08 04:19:37;;;;;;;7.57;3.60;;;;;;;16.72;42.50;95336.84;5071554;28;20997;-78
2022/05/08 04:24:51;;;;;;;6.53;4.20;;;;;;;17.45;40.13;95336.38;5071889;28;20794;-78
2022/05/08 04:27:18;;;;;;;4.40;3.87;;;;;;;17.73;39.93;95339.63;5074807;28;20834;-78
2022/05/08 04:29:45;;;;;;;6.50;4.40;;;;;;;17.14;40.73;95341.41;5075449;28;20440;-78
2022/05/08 04:32:12;;;;;;;4.07;3.77;;;;;;;16.76;42.94;95344.50;5024132;28;20491;-79
2022/05/08 04:34:38;;;;;;;7.03;5.07;;;;;;;16.86;43.94;95346.06;5075443;28;20448;-79
2022/05/08 04:37:05;;;;;;;8.43;4.93;;;;;;;16.78;43.70;95351.31;5075684;28;20463;-79
2022/05/08 04:39:32;;;;;;;9.83;5.40;;;;;;;16.96;43.33;95346.78;5075672;28;20437;-78
2022/05/08 04:42:01;;;;;;;5.50;5.00;;;;;;;17.19;43.09;95348.88;5075429;28;20450;-78
2022/05/08 04:44:28;;;;;;;8.50;4.67;;;;;;;17.40;42.28;95354.59;5075266;28;20440;-79
2022/05/08 04:46:55;;;;;;;5.60;4.57;;;;;;;17.54;42.21;95346.00;5040202;28;20471;-78
2022/05/08 04:49:22;;;;;;;4.43;4.03;;;;;;;17.50;41.08;95354.47;5075359;28;20456;-78
2022/05/08 04:51:49;;;;;;;9.43;4.90;;;;;;;17.64;40.82;95351.19;5074824;28;20480;-77
2022/05/08 04:54:16;;;;;;;6.70;4.27;;;;;;;18.07;40.37;95344.81;5023136;28;20445;-78
2022/05/08 04:56:43;;;;;;;9.00;4.23;;;;;;;18.47;40.00;95343.97;5075095;28;20443;-78
2022/05/08 04:59:11;;;;;;;9.67;4.37;;;;;;;18.95;38.86;95346.78;5074926;28;20459;-78
2022/05/08 05:01:38;;;;;;;10.33;4.20;;;;;;;19.24;38.64;95351.50;5022991;28;21003;-78
2022/05/08 05:04:05;;;;;;;10.27;5.33;;;;;;;19.37;37.01;95346.47;5075084;28;20913;-78
2022/05/08 05:06:32;;;;;;;13.50;4.60;;;;;;;19.53;36.91;95349.09;5074949;28;20429;-78
2022/05/08 05:08:59;;;;;;;9.97;5.10;;;;;;;19.75;36.16;95350.97;5075055;28;20924;-78
2022/05/08 05:11:26;;;;;;;7.47;5.23;;;;;;;20.05;35.89;95345.81;5074699;28;20524;-79
2022/05/08 05:13:53;;;;;;;8.97;5.43;;;;;;;20.47;35.28;95352.50;5039245;28;20433;-78
2022/05/08 05:16:21;;;;;;;8.80;5.70;;;;;;;20.34;34.38;95345.91;5075161;28;20449;-78
2022/05/08 05:18:48;;;;;;;8.50;4.90;;;;;;;20.23;34.40;95350.81;5074618;28;20469;-78
2022/05/08 05:21:15;;;;;;;6.97;4.63;;;;;;;20.15;34.63;95350.88;5074891;28;20448;-79
2022/05/08 05:23:42;;;;;;;9.43;5.00;;;;;;;20.47;34.58;95356.00;5074421;28;20437;-78
2022/05/08 05:26:09;;;;;;;5.23;4.73;;;;;;;20.63;34.25;95355.88;5074658;28;20445;-78
2022/05/08 05:28:36;;;;;;;7.57;4.83;;;;;;;20.67;34.58;95349.16;5074237;28;20447;-78
2022/05/08 05:31:03;;;;;;;6.33;5.37;;;;;;;20.49;33.94;95351.31;5074841;28;20449;-78
2022/05/08 05:33:31;;;;;;;10.70;5.27;;;;;;;20.06;34.40;95347.47;5074481;28;20476;-79
2022/05/08 05:35:58;;;;;;;7.80;4.47;;;;;;;19.92;34.61;95346.38;5038854;28;20939;-76
2022/05/08 05:38:25;;;;;;;5.43;4.73;;;;;;;19.95;35.56;95350.50;5073460;28;20440;-78
2022/05/08 05:40:52;;;;;;;9.83;4.90;;;;;;;19.66;35.68;95346.72;5074232;28;20445;-78
2022/05/08 05:43:18;;;;;;;7.73;4.77;;;;;;;19.86;35.18;95347.06;5074557;28;20460;-78
2022/05/08 05:45:45;;;;;;;8.13;4.80;;;;;;;19.70;35.57;95356.00;5075205;28;20448;-79
2022/05/08 05:48:11;;;;;;;7.93;4.50;;;;;;;19.62;36.28;95350.69;5022363;28;20456;-78
2022/05/08 05:50:41;;;;;;;4.80;4.27;;;;;;;19.39;35.42;95353.28;5074034;28;20449;-78
2022/05/08 05:53:08;;;;;;;7.40;4.10;;;;;;;19.58;35.42;95346.72;5073980;28;20222;-79
2022/05/08 05:55:34;;;;;;;5.30;4.70;;;;;;;19.71;35.52;95346.19;5074009;28;20829;-78
2022/05/08 05:58:01;;;;;;;7.10;4.43;;;;;;;19.64;35.55;95348.69;5073804;28;20935;-78
2022/05/08 06:00:28;;;;;;;10.23;4.90;;;;;;;19.93;35.27;95345.34;5073577;28;20436;-79
2022/05/08 06:02:55;;;;;;;7.10;5.00;;;;;;;20.14;34.18;95349.22;5073938;28;20448;-79
2022/05/08 06:05:22;;;;;;;5.40;4.73;;;;;;;20.33;33.96;95338.94;5074209;28;20425;-79
2022/05/08 06:07:50;;;;;;;5.00;4.50;;;;;;;20.41;34.39;95343.38;5073675;28;20950;-78
2022/05/08 06:10:17;;;;;;;8.93;4.90;;;;;;;20.34;33.84;95345.91;5074055;28;20794;-79
2022/05/08 06:12:44;;;;;;;6.23;4.20;;;;;;;20.39;33.59;95337.38;5073308;28;20488;-79
2022/05/08 06:15:11;;;;;;;6.73;4.10;;;;;;;20.28;33.63;95332.47;5073577;28;20475;-79
2022/05/08 06:17:39;;;;;;;15.23;5.03;;;;;;;20.24;33.05;95339.16;5073267;28;20445;-79
2022/05/08 06:20:07;;;;;;;5.90;4.20;;;;;;;20.17;33.56;95336.38;5074042;28;20472;-79
2022/05/08 06:22:34;;;;;;;7.67;4.17;;;;;;;19.92;33.69;95334.88;5073242;28;20452;-79
2022/05/08 06:25:03;;;;;;;9.60;4.50;;;;;;;20.03;33.72;95345.16;5073382;28;20449;-78
2022/05/08 06:27:30;;;;;;;5.50;3.80;;;;;;;19.89;33.19;95335.25;5073258;28;20441;-79
2022/05/08 06:29:59;;;;;;;4.87;3.67;;;;;;;20.26;32.26;95338.00;5073272;28;20449;-79
2022/05/08 06:32:25;;;;;;;5.30;3.77;;;;;;;20.30;33.62;95336.63;5073376;28;20538;-79
2022/05/08 06:34:52;;;;;;;7.53;4.23;;;;;;;20.50;34.04;95334.31;5073456;28;20463;-78
2022/05/08 06:37:19;;;;;;;5.43;4.40;;;;;;;20.73;33.55;95334.25;5037936;28;20936;-79
2022/05/08 06:39:46;;;;;;;6.27;3.80;;;;;;;20.68;32.57;95331.31;5073070;28;20823;-79
2022/05/08 06:42:14;;;;;;;13.60;3.90;;;;;;;20.23;32.79;95322.34;5072925;28;20432;-79
2022/05/08 06:44:41;;;;;;;5.93;3.57;;;;;;;20.64;34.00;95324.69;4972389;28;20805;-79
2022/05/08 06:47:08;;;;;;;7.20;4.13;;;;;;;20.83;33.21;95326.84;5072899;28;20548;-78
2022/05/08 06:49:35;;;;;;;5.27;3.70;;;;;;;21.23;32.25;95324.75;5072606;28;20448;-80
2022/05/08 06:52:02;;;;;;;4.47;3.60;;;;;;;21.46;32.02;95327.34;5073311;28;20554;-79
2022/05/08 06:54:29;;;;;;;4.50;3.47;;;;;;;20.96;31.97;95329.69;5020828;28;20437;-79
2022/05/08 06:56:56;;;;;;;5.73;3.93;;;;;;;20.85;33.09;95327.50;5072671;28;20444;-79
2022/05/08 07:02:10;;;;;;;4.93;3.93;;;;;;;20.82;33.00;95314.53;5068703;28;20831;-78
2022/05/08 07:04:37;;;;;;;5.70;3.97;;;;;;;20.78;34.35;95323.88;5050383;28;20441;-79
2022/05/08 07:07:04;;;;;;;5.90;3.87;;;;;;;20.78;32.85;95321.22;5053125;28;20446;-79
2022/05/08 07:09:32;;;;;;;4.40;3.93;;;;;;;20.80;33.32;95321.03;5052393;28;20430;-79
2022/05/08 07:11:59;;;;;;;4.00;3.57;;;;;;;21.06;33.17;95315.25;5052757;28;20498;-79
2022/05/08 07:14:27;;;;;;;4.17;3.83;;;;;;;21.42;32.86;95318.03;5052829;28;20769;-78
2022/05/08 07:16:54;;;;;;;4.60;3.50;;;;;;;21.41;32.32;95325.22;5055031;28;20504;-79
2022/05/08 07:19:21;;;;;;;3.70;3.40;;;;;;;21.13;32.75;95322.34;5071990;28;20461;-78
2022/05/08 07:21:48;;;;;;;3.60;3.30;;;;;;;21.61;33.13;95318.25;5072145;28;20449;-79
2022/05/08 07:24:15;;;;;;;6.60;4.70;;;;;;;21.75;32.56;95321.94;5072181;28;20455;-78
2022/05/08 07:26:41;;;;;;;4.27;3.63;;;;;;;21.89;34.13;95310.38;5072332;28;20441;-79
2022/05/08 07:29:08;;;;;;;3.40;3.10;;;;;;;22.13;32.09;95301.19;5072463;28;20435;-78
2022/05/08 07:31:38;;;;;;;5.80;3.97;;;;;;;22.33;31.67;95309.41;5072499;28;20449;-78
2022/05/08 07:36:49;;;;;;;3.93;3.50;;;;;;;22.25;32.09;95299.63;5072311;28;20563;-78
2022/05/08 07:39:16;;;;;;;4.00;3.70;;;;;;;22.53;31.99;95304.19;5072077;28;20440;-79
2022/05/08 07:41:43;;;;;;;8.17;3.97;;;;;;;22.90;32.43;95302.25;5072312;28;20479;-78
2022/05/08 07:44:10;;;;;;;5.80;3.70;;;;;;;22.82;31.87;95296.00;5072177;28;20445;-79
2022/05/08 07:46:38;;;;;;;4.57;3.20;;;;;;;22.95;31.58;95292.59;5072208;28;20456;-79
2022/05/08 07:49:05;;;;;;;9.80;4.80;;;;;;;22.65;31.50;95293.81;5072054;28;20437;-78
2022/05/08 07:51:31;;;;;;;4.20;3.73;;;;;;;22.26;32.48;95292.44;5020618;28;20466;-78
2022/05/08 07:53:59;;;;;;;3.90;3.50;;;;;;;21.36;33.40;95292.88;5072042;28;20488;-79
2022/05/08 07:56:26;;;;;;;4.03;3.10;;;;;;;21.38;34.11;95290.84;5071996;28;20445;-78
2022/05/08 07:58:53;;;;;;;8.80;3.70;;;;;;;21.33;34.20;95288.75;5072040;28;20474;-78
2022/05/08 08:01:20;;;;;;;7.53;3.77;;;;;;;21.51;35.01;95288.38;5038066;28;20447;-79
2022/05/08 08:03:48;;;;;;;3.93;3.53;;;;;;;21.83;34.17;95289.75;5075821;28;21512;-79
2022/05/08 08:06:15;;;;;;;5.40;3.90;;;;;;;21.96;34.00;95283.69;5076235;28;20445;-78
2022/05/08 08:08:42;;;;;;;10.57;4.33;;;;;;;22.07;33.86;95285.91;5075928;28;20475;-79
2022/05/08 08:11:11;;;;;;;4.33;3.90;;;;;;;21.93;32.61;95279.56;5075978;28;20448;-79
2022/05/08 08:13:38;;;;;;;4.40;3.93;;;;;;;20.99;33.79;95288.47;5075752;28;20516;-79
2022/05/08 08:16:06;;;;;;;5.97;3.77;;;;;;;21.19;34.62;95281.56;5076181;28;20449;-78
2022/05/08 08:18:33;;;;;;;8.80;3.60;;;;;;;21.42;35.51;95281.50;5075742;28;20499;-79
2022/05/08 08:21:01;;;;;;;9.10;4.40;;;;;;;21.52;35.34;95276.66;5076088;28;20441;-79
2022/05/08 08:23:29;;;;;;;6.60;3.80;;;;;;;21.44;35.14;95279.47;5075752;28;20441;-79
2022/05/08 08:25:56;;;;;;;7.37;3.80;;;;;;;21.50;35.09;95276.03;5075791;28;20446;-79
2022/05/08 08:28:23;;;;;;;6.83;3.70;;;;;;;21.77;34.65;95274.47;5075754;28;20808;-79
2022/05/08 08:30:49;;;;;;;8.17;4.03;;;;;;;21.01;34.41;95271.28;5075368;28;20452;-79
2022/05/08 08:33:16;;;;;;;4.90;4.50;;;;;;;21.17;32.99;95280.09;5075683;28;21055;-79
2022/05/08 08:35:43;;;;;;;4.77;3.53;;;;;;;21.37;33.91;95270.50;5075323;28;20445;-78
2022/05/08 08:38:12;;;;;;;4.90;4.00;;;;;;;21.62;34.57;95271.84;5075601;28;20433;-79
2022/05/08 08:40:41;;;;;;;5.30;3.43;;;;;;;21.72;34.16;95266.22;5075499;28;20448;-79
2022/05/08 08:43:09;;;;;;;4.90;4.20;;;;;;;21.95;34.79;95268.69;5075702;28;20439;-79
2022/05/08 08:48:28;;;;;;;3.67;3.37;;;;;;;22.20;32.80;95267.31;5075382;28;20981;-78
2022/05/08 08:50:56;;;;;;;4.43;4.00;;;;;;;22.42;33.82;95256.59;5075208;28;20494;-79
2022/05/08 08:53:25;;;;;;;6.87;4.70;;;;;;;22.48;32.38;95259.31;5075233;28;20979;-78
2022/05/08 08:55:53;;;;;;;6.73;3.80;;;;;;;22.72;32.93;95247.34;5075038;28;20449;-80
2022/05/08 08:58:21;;;;;;;10.20;3.90;;;;;;;22.67;30.91;95247.13;5023692;28;20927;-79
2022/05/08 09:00:51;;;;;;;6.30;4.40;;;;;;;22.54;31.99;95241.66;5075081;28;20445;-79
2022/05/08 09:03:25;;;;;;;12.80;5.30;;;;;;;22.52;32.20;95249.03;5074955;28;20444;-79
2022/05/08 09:05:54;;;;;;;3.73;3.43;;;;;;;22.50;31.81;95243.06;5074892;28;20453;-78
2022/05/08 09:08:31;;;;;;;6.43;3.93;;;;;;;22.34;31.71;95246.03;5074734;28;20441;-78
2022/05/08 09:10:58;;;;;;;10.50;4.83;;;;;;;22.23;32.60;95244.72;5074782;28;20452;-79
2022/05/08 09:13:26;;;;;;;6.43;4.30;;;;;;;22.06;32.28;95246.84;5074494;28;20480;-79
2022/05/08 09:16:02;;;;;;;5.20;3.73;;;;;;;22.33;32.92;95242.53;5075077;28;20810;-78
2022/05/08 09:18:30;;;;;;;4.30;3.90;;;;;;;22.39;32.64;95235.59;5074777;28;20529;-78
2022/05/08 09:21:54;;;;;;;5.30;3.47;;;;;;;22.22;32.13;95233.19;5074680;28;20441;-79
2022/05/08 09:23:46;;;;;;;7.20;4.47;;;;;;;22.05;33.33;95233.69;5074407;28;20846;-79
2022/05/08 09:26:14;;;;;;;6.73;4.07;;;;;;;22.02;31.07;95226.84;5074491;28;20437;-79
2022/05/08 09:28:42;;;;;;;5.23;3.80;;;;;;;21.73;31.98;95227.78;5074660;28;20437;-78
2022/05/08 09:31:10;;;;;;;5.50;4.77;;;;;;;21.88;33.75;95233.88;5074283;28;20429;-79
2022/05/08 09:33:39;;;;;;;5.50;4.07;;;;;;;22.04;32.18;95232.84;5074434;28;20543;-79
2022/05/08 09:36:08;;;;;;;4.93;4.30;;;;;;;22.25;30.87;95232.81;5023050;28;20460;-78
2022/05/08 09:38:57;;;;;;;4.00;3.63;;;;;;;22.54;30.04;95222.94;5039705;28;20505;-78
2022/05/08 09:41:26;;;;;;;4.33;3.90;;;;;;;22.69;30.14;95223.66;4992573;28;20990;-79
2022/05/08 09:43:55;;;;;;;4.90;3.13;;;;;;;22.80;29.42;95215.06;4992685;28;20536;-79
2022/05/08 09:46:22;;;;;;;4.20;3.20;;;;;;;22.94;29.93;95224.03;4992757;28;20457;-79
2022/05/08 09:48:49;;;;;;;6.33;3.77;;;;;;;22.98;28.01;95214.59;4960304;28;20441;-78
2022/05/08 09:51:17;;;;;;;4.63;3.50;;;;;;;23.03;28.52;95212.13;4992541;28;20503;-79
2022/05/08 09:53:46;;;;;;;5.17;3.33;;;;;;;22.91;26.91;95210.22;4992535;28;21013;-79
2022/05/08 09:56:15;;;;;;;3.70;3.47;;;;;;;22.85;26.89;95206.50;4992127;28;20499;-78
2022/05/08 09:58:43;;;;;;;6.67;3.03;;;;;;;22.94;27.95;95199.97;4992457;28;20451;-79
2022/05/08 10:01:10;;;;;;;3.40;3.10;;;;;;;22.93;26.99;95197.47;4961069;28;20516;-78
2022/05/08 10:03:37;;;;;;;4.53;3.63;;;;;;;22.91;27.84;95202.22;4992422;28;20441;-79
2022/05/08 10:06:04;;;;;;;5.80;3.93;;;;;;;22.82;29.14;95188.97;4992237;28;20440;-80
2022/05/08 10:08:35;;;;;;;3.97;3.13;;;;;;;22.89;27.54;95193.56;4992526;28;20939;-79
2022/05/08 10:13:54;;;;;;;5.70;3.37;;;;;;;22.71;28.34;95192.19;4992397;28;20870;-79
2022/05/08 10:16:44;;;;;;;4.00;3.43;;;;;;;22.87;27.54;95185.72;4992144;28;20460;-78
2022/05/08 10:19:53;;;;;;;3.97;2.83;;;;;;;22.57;28.31;95177.09;5058928;28;20538;-79
2022/05/08 10:22:20;;;;;;;4.00;3.60;;;;;;;22.24;27.86;95183.03;5021281;28;20437;-79
2022/05/08 10:24:51;;;;;;;6.83;3.40;;;;;;;22.43;28.49;95175.34;5073091;28;20535;-78
2022/05/08 10:27:21;;;;;;;5.40;3.77;;;;;;;22.62;30.40;95163.94;5021363;28;20440;-79
2022/05/08 10:30:33;;;;;;;3.90;3.60;;;;;;;22.80;29.13;95158.06;5073235;28;20456;-80
2022/05/08 10:33:02;;;;;;;3.63;3.33;;;;;;;22.74;28.31;95156.19;5073105;28;20994;-80
2022/05/08 10:35:32;;;;;;;5.30;3.63;;;;;;;22.84;29.45;95159.34;5073244;28;20818;-78
2022/05/08 10:38:21;;;;;;;3.57;3.27;;;;;;;23.04;31.14;95154.06;5073147;28;20425;-79
2022/05/08 10:40:49;;;;;;;6.87;4.37;;;;;;;22.96;28.64;95156.94;5072979;28;20477;-78
2022/05/08 10:43:32;;;;;;;7.40;3.70;;;;;;;22.80;29.96;95158.88;5073047;28;20444;-78
2022/05/08 10:46:23;;;;;;;6.27;3.30;;;;;;;23.01;28.97;95157.16;5073140;28;20498;-79
2022/05/08 10:48:53;;;;;;;4.57;3.70;;;;;;;22.69;28.55;95148.75;5072962;28;20504;-79
2022/05/08 10:51:20;;;;;;;4.43;3.10;;;;;;;22.85;28.54;95136.94;5073014;28;20439;-78
2022/05/08 10:53:47;;;;;;;4.53;3.70;;;;;;;22.99;29.58;95135.13;5072789;28;20492;-79
2022/05/08 10:56:14;;;;;;;3.90;3.60;;;;;;;22.94;29.11;95142.94;5072803;28;20923;-79
2022/05/08 10:58:52;;;;;;;3.50;3.20;;;;;;;22.47;28.89;95128.47;5072417;28;20495;-79
2022/05/08 11:01:19;;;;;;;3.67;3.30;;;;;;;22.51;30.00;95135.88;5073005;28;20445;-80
2022/05/08 11:03:45;;;;;;;3.40;3.10;;;;;;;22.58;29.15;95127.91;5072497;28;20825;-80
2022/05/08 11:06:23;;;;;;;4.00;3.70;;;;;;;22.68;30.70;95131.03;5072618;28;20437;-78
2022/05/08 11:08:50;;;;;;;4.30;3.90;;;;;;;22.69;29.43;95126.53;5072299;28;20938;-78
2022/05/08 11:11:18;;;;;;;3.50;3.30;;;;;;;22.68;28.70;95128.38;5072536;28;20460;-79
2022/05/08 11:13:49;;;;;;;3.87;3.57;;;;;;;22.59;29.16;95126.06;5072311;28;20527;-79
2022/05/08 11:16:36;;;;;;;4.47;3.70;;;;;;;22.50;28.26;95120.88;5072488;28;20954;-79
2022/05/08 11:19:04;;;;;;;3.73;2.77;;;;;;;22.33;27.95;95119.56;5072652;28;20480;-79
2022/05/08 11:21:33;;;;;;;3.17;2.87;;;;;;;22.08;28.86;95121.84;5072494;28;20444;-78
2022/05/08 11:24:00;;;;;;;3.57;3.27;;;;;;;22.21;28.06;95111.22;5072335;28;21004;-78
2022/05/08 11:26:32;;;;;;;7.20;3.40;;;;;;;22.44;27.75;95102.94;5072297;28;20456;-78
2022/05/08 11:29:00;;;;;;;3.47;2.90;;;;;;;22.52;28.44;95109.97;5072299;28;20443;-79
2022/05/08 11:31:28;;;;;;;3.37;3.17;;;;;;;22.55;27.73;95107.75;5072719;28;20506;-79
2022/05/08 11:36:41;;;;;;;6.33;3.13;;;;;;;22.62;26.91;95101.59;5071555;28;20424;-78
2022/05/08 11:39:12;;;;;;;4.03;2.80;;;;;;;22.46;27.19;95092.88;5020922;28;20453;-79
2022/05/08 11:41:41;;;;;;;2.90;2.67;;;;;;;22.39;25.53;95097.38;5072364;28;20436;-79
2022/05/08 11:44:21;;;;;;;4.10;3.10;;;;;;;22.50;24.80;95093.28;5072080;28;20491;-78
2022/05/08 11:46:49;;;;;;;2.60;2.40;;;;;;;22.59;24.50;95097.47;5071817;28;20436;-79
2022/05/08 11:49:18;;;;;;;3.83;2.30;;;;;;;22.52;22.39;95089.38;5072376;28;20445;-79
2022/05/08 11:51:48;;;;;;;2.50;2.30;;;;;;;22.71;22.39;95090.50;5072234;28;20452;-77
2022/05/08 11:54:22;;;;;;;2.80;1.90;;;;;;;22.69;20.92;95097.09;5071915;28;20480;-78
2022/05/08 11:56:51;;;;;;;2.33;2.13;;;;;;;22.74;21.92;95094.63;5071905;28;20444;-79
2022/05/08 11:59:21;;;;;;;2.30;2.10;;;;;;;22.51;21.28;95086.91;5071776;28;20528;-78
2022/05/08 12:01:50;;;;;;;2.20;2.10;;;;;;;22.67;22.28;95078.56;5072163;28;20449;-78